createdAt,value
2019-06-27T00:00:29.667Z,101013.37
2019-06-27T00:02:58.517Z,101020.50
2019-06-27T00:05:27.058Z,101021.87
2019-06-27T00:07:55.652Z,101025.12
2019-06-27T00:10:24.183Z,101025.34
2019-06-27T00:12:52.953Z,101028.70
2019-06-27T00:15:21.464Z,101026.97
2019-06-27T00:17:50.258Z,101029.35
2019-06-27T00:20:19.048Z,101023.67
2019-06-27T00:22:47.576Z,101030.34
2019-06-27T00:25:16.401Z,101027.59
2019-06-27T00:27:44.948Z,101038.38
2019-06-27T00:30:13.480Z,101039.73
2019-06-27T00:32:42.005Z,101043.91
2019-06-27T00:35:10.824Z,101033.92
2019-06-27T00:37:39.400Z,101034.09
2019-06-27T00:40:07.930Z,101040.63
2019-06-27T00:42:36.485Z,101039.88
2019-06-27T00:45:05.166Z,101041.58
2019-06-27T00:47:33.719Z,101045.08
2019-06-27T00:50:02.241Z,101043.92
2019-06-27T00:52:30.796Z,101048.04
2019-06-27T00:54:59.345Z,101054.73
2019-06-27T00:57:27.881Z,101053.28
2019-06-27T00:59:56.418Z,101046.52
2019-06-27T01:02:25.348Z,101045.65
2019-06-27T01:04:53.862Z,101050.41
2019-06-27T01:07:22.925Z,101049.37
2019-06-27T01:09:51.451Z,101053.61
2019-06-27T01:12:19.987Z,101056.36
2019-06-27T01:14:48.538Z,101056.06
2019-06-27T01:17:17.395Z,101049.08
2019-06-27T01:19:46.017Z,101056.48
2019-06-27T01:22:14.525Z,101057.03
2019-06-27T01:24:43.065Z,101059.86
2019-06-27T01:27:11.577Z,101068.95
2019-06-27T01:29:40.110Z,101064.65
2019-06-27T01:32:08.672Z,101069.31
2019-06-27T01:34:37.198Z,101066.94
2019-06-27T01:37:05.728Z,101060.59
2019-06-27T01:39:34.363Z,101061.53
2019-06-27T01:42:03.139Z,101064.61
2019-06-27T01:44:59.775Z,101064.56
2019-06-27T01:47:28.301Z,101063.29
2019-06-27T01:49:56.854Z,101068.48
2019-06-27T01:52:25.372Z,101068.13
2019-06-27T01:54:53.945Z,101066.89
2019-06-27T01:57:22.699Z,101061.94
2019-06-27T01:59:51.571Z,101060.19
2019-06-27T02:02:20.099Z,101061.92
2019-06-27T02:04:48.961Z,101070.78
2019-06-27T02:07:17.486Z,101072.02
2019-06-27T02:09:46.041Z,101078.69
2019-06-27T02:12:15.132Z,101069.86
2019-06-27T02:14:43.666Z,101070.20
2019-06-27T02:17:12.458Z,101069.47
2019-06-27T02:19:40.991Z,101071.63
2019-06-27T02:22:09.574Z,101078.67
2019-06-27T02:24:38.142Z,101079.84
2019-06-27T02:27:06.669Z,101075.97
2019-06-27T02:29:35.218Z,101077.02
2019-06-27T02:32:04.104Z,101081.59
2019-06-27T02:34:32.650Z,101078.91
2019-06-27T02:37:01.172Z,101071.45
2019-06-27T02:39:29.710Z,101081.37
2019-06-27T02:41:58.549Z,101081.02
2019-06-27T02:44:27.085Z,101086.27
2019-06-27T02:46:55.603Z,101084.54
2019-06-27T02:49:24.126Z,101074.19
2019-06-27T02:51:52.636Z,101082.01
2019-06-27T02:54:21.497Z,101086.06
2019-06-27T02:56:50.333Z,101083.77
2019-06-27T02:59:18.857Z,101089.75
2019-06-27T03:01:47.416Z,101086.53
2019-06-27T03:04:16.208Z,101090.53
2019-06-27T03:06:44.756Z,101084.41
2019-06-27T03:09:13.289Z,101080.14
2019-06-27T03:11:42.145Z,101079.94
2019-06-27T03:14:10.676Z,101089.06
2019-06-27T03:16:39.214Z,101090.67
2019-06-27T03:19:07.756Z,101095.40
2019-06-27T03:21:36.302Z,101091.76
2019-06-27T03:24:04.829Z,101091.96
2019-06-27T03:26:33.376Z,101090.83
2019-06-27T03:29:01.916Z,101098.22
2019-06-27T03:31:30.441Z,101090.10
2019-06-27T03:33:58.994Z,101100.42
2019-06-27T03:36:27.621Z,101094.58
2019-06-27T03:38:56.154Z,101097.72
2019-06-27T03:41:24.697Z,101106.02
2019-06-27T03:43:53.237Z,101103.68
2019-06-27T03:46:21.761Z,101105.34
2019-06-27T03:48:50.591Z,101104.45
2019-06-27T03:51:19.127Z,101106.28
2019-06-27T03:53:47.650Z,101106.22
2019-06-27T03:56:16.214Z,101109.02
2019-06-27T03:58:45.013Z,101114.90
2019-06-27T04:01:13.584Z,101113.59
2019-06-27T04:03:43.155Z,101114.50
2019-06-27T04:06:12.568Z,101110.86
2019-06-27T04:08:41.106Z,101113.27
2019-06-27T04:11:09.650Z,101114.94
2019-06-27T04:13:38.519Z,101121.92
2019-06-27T04:16:07.024Z,101121.13
2019-06-27T04:18:35.594Z,101122.77
2019-06-27T04:21:04.213Z,101127.86
2019-06-27T04:23:33.053Z,101133.92
2019-06-27T04:26:02.159Z,101135.14
2019-06-27T04:28:31.023Z,101133.17
2019-06-27T04:30:59.897Z,101132.71
2019-06-27T04:33:28.436Z,101138.59
2019-06-27T04:35:56.986Z,101139.80
2019-06-27T04:38:25.507Z,101149.69
2019-06-27T04:40:54.037Z,101147.18
2019-06-27T04:43:22.585Z,101160.94
2019-06-27T04:45:51.742Z,101158.60
2019-06-27T04:48:20.607Z,101164.79
2019-06-27T04:50:49.361Z,101164.45
2019-06-27T04:53:17.897Z,101163.81
2019-06-27T04:55:46.429Z,101166.98
2019-06-27T04:58:15.566Z,101167.77
2019-06-27T05:00:44.087Z,101176.22
2019-06-27T05:03:12.647Z,101174.48
2019-06-27T05:05:41.510Z,101178.66
2019-06-27T05:08:14.040Z,101179.00
2019-06-27T05:10:40.336Z,101174.70
2019-06-27T05:13:08.841Z,101171.31
2019-06-27T05:15:37.397Z,101176.81
2019-06-27T05:18:05.930Z,101167.98
2019-06-27T05:20:34.472Z,101172.54
2019-06-27T05:23:03.256Z,101178.51
2019-06-27T05:25:31.789Z,101168.77
2019-06-27T05:28:00.320Z,101162.20
2019-06-27T05:30:29.193Z,101161.36
2019-06-27T05:32:58.003Z,101170.02
2019-06-27T05:35:26.618Z,101170.27
2019-06-27T05:37:55.132Z,101168.23
2019-06-27T05:40:23.676Z,101166.70
2019-06-27T05:42:52.214Z,101162.19
2019-06-27T05:45:21.012Z,101163.97
2019-06-27T05:47:49.523Z,101158.96
2019-06-27T05:50:18.044Z,101161.17
2019-06-27T05:52:46.565Z,101159.84
2019-06-27T05:55:15.078Z,101164.31
2019-06-27T05:57:43.842Z,101168.75
2019-06-27T06:00:26.590Z,101168.92
2019-06-27T06:02:42.764Z,101176.94
2019-06-27T06:05:11.388Z,101176.10
2019-06-27T06:07:40.230Z,101177.00
2019-06-27T06:10:08.832Z,101174.27
2019-06-27T06:12:37.338Z,101176.70
2019-06-27T06:15:06.490Z,101181.03
2019-06-27T06:17:35.259Z,101174.89
2019-06-27T06:20:03.947Z,101186.42
2019-06-27T06:22:32.458Z,101175.70
2019-06-27T06:25:00.995Z,101181.97
2019-06-27T06:27:29.504Z,101184.95
2019-06-27T06:29:58.024Z,101188.13
2019-06-27T06:32:26.524Z,101180.63
2019-06-27T06:34:55.045Z,101179.11
2019-06-27T06:37:23.560Z,101185.20
2019-06-27T06:39:52.089Z,101185.91
2019-06-27T06:42:20.875Z,101195.15
2019-06-27T06:44:49.386Z,101192.11
2019-06-27T06:47:18.181Z,101204.11
2019-06-27T06:49:46.664Z,101198.61
2019-06-27T06:52:15.172Z,101206.30
2019-06-27T06:54:43.685Z,101213.84
2019-06-27T06:57:12.488Z,101211.70
2019-06-27T06:59:41.060Z,101203.76
2019-06-27T07:02:09.718Z,101202.34
2019-06-27T07:04:38.278Z,101208.01
2019-06-27T07:07:06.797Z,101205.93
2019-06-27T07:09:35.614Z,101209.39
2019-06-27T07:12:04.156Z,101207.94
2019-06-27T07:14:32.644Z,101217.03
2019-06-27T07:17:01.162Z,101210.84
2019-06-27T07:19:29.700Z,101222.15
2019-06-27T07:21:58.203Z,101217.47
2019-06-27T07:24:26.742Z,101214.96
2019-06-27T07:26:55.254Z,101211.19
2019-06-27T07:29:23.758Z,101202.38
2019-06-27T07:31:52.262Z,101214.75
2019-06-27T07:34:20.778Z,101216.06
2019-06-27T07:36:49.326Z,101217.36
2019-06-27T07:39:17.858Z,101214.05
2019-06-27T07:41:46.369Z,101225.30
2019-06-27T07:44:15.005Z,101222.15
2019-06-27T07:46:43.538Z,101217.11
2019-06-27T07:49:12.037Z,101219.35
2019-06-27T07:51:40.555Z,101211.67
2019-06-27T07:54:09.143Z,101219.58
2019-06-27T07:56:37.905Z,101220.88
2019-06-27T07:59:06.403Z,101221.92
2019-06-27T08:01:36.125Z,101222.02
2019-06-27T08:04:04.743Z,101220.54
2019-06-27T08:06:33.265Z,101219.11
2019-06-27T08:09:02.363Z,101217.94
2019-06-27T08:11:30.879Z,101215.45
2019-06-27T08:13:59.677Z,101219.87
2019-06-27T08:16:28.210Z,101213.81
2019-06-27T08:18:56.723Z,101215.48
2019-06-27T08:21:25.218Z,101218.25
2019-06-27T08:23:53.753Z,101217.19
2019-06-27T08:26:22.527Z,101220.65
2019-06-27T08:28:51.049Z,101216.63
2019-06-27T08:31:19.551Z,101220.31
2019-06-27T08:33:48.071Z,101212.98
2019-06-27T08:36:16.868Z,101216.27
2019-06-27T08:38:45.393Z,101212.71
2019-06-27T08:41:16.602Z,101213.72
2019-06-27T08:43:44.525Z,101219.05
2019-06-27T08:46:13.021Z,101216.80
2019-06-27T08:48:41.868Z,101206.25
2019-06-27T08:51:10.742Z,101207.69
2019-06-27T08:53:39.538Z,101208.95
2019-06-27T08:56:08.327Z,101211.23
2019-06-27T08:58:36.839Z,101210.72
2019-06-27T09:01:05.358Z,101210.96
2019-06-27T09:03:34.229Z,101210.67
2019-06-27T09:06:03.069Z,101213.17
2019-06-27T09:08:31.595Z,101214.56
2019-06-27T09:11:00.433Z,101212.09
2019-06-27T09:13:28.972Z,101198.41
2019-06-27T09:15:57.480Z,101206.55
2019-06-27T09:18:26.235Z,101204.42
2019-06-27T09:20:54.750Z,101200.56
2019-06-27T09:23:23.286Z,101205.97
2019-06-27T09:25:52.105Z,101193.14
2019-06-27T09:28:20.580Z,101194.36
2019-06-27T09:30:49.621Z,101201.75
2019-06-27T09:33:18.716Z,101202.66
2019-06-27T09:35:47.241Z,101197.13
2019-06-27T09:38:15.817Z,101200.38
2019-06-27T09:40:44.412Z,101203.55
2019-06-27T09:43:12.926Z,101199.56
2019-06-27T09:45:41.735Z,101195.52
2019-06-27T09:48:10.259Z,101201.28
2019-06-27T09:50:38.785Z,101200.66
2019-06-27T09:53:07.610Z,101202.42
2019-06-27T09:55:36.133Z,101197.95
2019-06-27T09:58:04.891Z,101191.30
2019-06-27T10:00:33.875Z,101187.35
2019-06-27T10:03:02.379Z,101186.61
2019-06-27T10:05:30.993Z,101187.45
2019-06-27T10:07:59.841Z,101195.45
2019-06-27T10:10:28.387Z,101184.77
2019-06-27T10:12:56.921Z,101186.91
2019-06-27T10:15:25.454Z,101189.95
2019-06-27T10:17:53.968Z,101197.35
2019-06-27T10:20:22.577Z,101195.93
2019-06-27T10:22:51.098Z,101193.70
2019-06-27T10:25:19.664Z,101188.61
2019-06-27T10:27:48.183Z,101190.16
2019-06-27T10:30:16.855Z,101196.95
2019-06-27T10:32:58.199Z,101195.42
2019-06-27T10:35:16.085Z,101189.33
2019-06-27T10:37:44.962Z,101187.31
2019-06-27T10:40:13.631Z,101184.88
2019-06-27T10:42:42.744Z,101185.01
2019-06-27T10:45:11.769Z,101190.43
2019-06-27T10:47:40.376Z,101181.25
2019-06-27T10:50:10.032Z,101185.94
2019-06-27T10:52:38.582Z,101180.74
2019-06-27T10:55:07.432Z,101179.47
2019-06-27T10:57:35.976Z,101167.02
2019-06-27T11:00:05.085Z,101163.43
2019-06-27T11:02:33.620Z,101159.45
2019-06-27T11:05:02.204Z,101161.05
2019-06-27T11:07:30.792Z,101154.32
2019-06-27T11:09:59.319Z,101150.42
2019-06-27T11:12:27.855Z,101145.02
2019-06-27T11:14:59.481Z,101146.26
2019-06-27T11:17:27.018Z,101141.34
2019-06-27T11:19:55.537Z,101136.66
2019-06-27T11:22:24.247Z,101139.80
2019-06-27T11:24:52.793Z,101135.84
2019-06-27T11:27:21.587Z,101131.36
2019-06-27T11:29:50.223Z,101127.12
2019-06-27T11:32:18.786Z,101125.80
2019-06-27T11:34:47.382Z,101124.21
2019-06-27T11:37:15.979Z,101117.02
2019-06-27T11:39:44.571Z,101114.34
2019-06-27T11:42:13.508Z,101118.16
2019-06-27T11:44:42.021Z,101109.80
2019-06-27T11:47:10.778Z,101104.58
2019-06-27T11:49:39.302Z,101105.28
2019-06-27T11:52:08.224Z,101106.52
2019-06-27T11:54:37.026Z,101103.29
2019-06-27T11:57:05.582Z,101097.25
2019-06-27T11:59:34.166Z,101098.44
2019-06-27T12:02:02.704Z,101090.83
2019-06-27T12:04:31.235Z,101085.84
2019-06-27T12:06:59.771Z,101087.89
2019-06-27T12:09:28.280Z,101087.50
2019-06-27T12:11:56.838Z,101085.19
2019-06-27T12:14:25.377Z,101092.53
2019-06-27T12:16:53.886Z,101093.23
2019-06-27T12:19:22.418Z,101090.16
2019-06-27T12:21:50.966Z,101086.54
2019-06-27T12:24:19.485Z,101083.78
2019-06-27T12:26:48.051Z,101077.28
2019-06-27T12:29:16.603Z,101075.44
2019-06-27T12:31:45.135Z,101074.65
2019-06-27T12:34:13.646Z,101073.89
2019-06-27T12:36:42.171Z,101070.14
2019-06-27T12:39:11.004Z,101073.69
2019-06-27T12:41:39.561Z,101069.91
2019-06-27T12:44:08.101Z,101059.59
2019-06-27T12:46:36.654Z,101063.19
2019-06-27T12:49:05.155Z,101075.97
2019-06-27T12:51:33.687Z,101067.31
2019-06-27T12:54:02.452Z,101068.95
2019-06-27T12:56:31.454Z,101072.41
2019-06-27T12:58:59.985Z,101065.66
2019-06-27T13:01:28.585Z,101068.74
2019-06-27T13:03:57.120Z,101061.83
2019-06-27T13:06:25.636Z,101063.34
2019-06-27T13:08:54.204Z,101060.06
2019-06-27T13:11:22.732Z,101055.81
2019-06-27T13:13:51.278Z,101053.78
2019-06-27T13:16:19.807Z,101048.14
2019-06-27T13:18:48.709Z,101045.16
2019-06-27T13:21:17.791Z,101045.89
2019-06-27T13:23:48.933Z,101047.14
2019-06-27T13:26:17.024Z,101045.91
2019-06-27T13:28:45.580Z,101044.49
2019-06-27T13:31:14.136Z,101043.92
2019-06-27T13:33:42.654Z,101047.00
2019-06-27T13:36:11.194Z,101042.34
2019-06-27T13:38:39.768Z,101043.23
2019-06-27T13:41:08.346Z,101046.02
2019-06-27T13:43:36.917Z,101042.73
2019-06-27T13:46:05.674Z,101037.48
2019-06-27T13:48:34.575Z,101042.73
2019-06-27T13:51:03.289Z,101032.20
2019-06-27T13:53:31.889Z,101029.45
2019-06-27T13:56:10.293Z,101032.25
2019-06-27T13:59:20.101Z,101034.20
2019-06-27T14:01:48.698Z,101028.90
2019-06-27T14:04:17.298Z,101024.45
2019-06-27T14:06:45.848Z,101017.02
2019-06-27T14:09:22.834Z,101022.16
2019-06-27T14:11:44.588Z,101027.14
2019-06-27T14:14:13.437Z,101020.28
2019-06-27T14:16:42.774Z,101021.64
2019-06-27T14:19:11.680Z,101014.47
2019-06-27T14:21:40.240Z,101019.69
2019-06-27T14:24:08.842Z,101018.38
2019-06-27T14:26:37.387Z,101015.77
2019-06-27T14:29:06.008Z,101015.34
2019-06-27T14:31:34.624Z,101002.33
2019-06-27T14:34:03.211Z,101003.86
2019-06-27T14:36:31.781Z,100996.63
2019-06-27T14:39:00.438Z,100999.71
2019-06-27T14:41:29.010Z,100992.82
2019-06-27T14:43:57.596Z,100993.20
2019-06-27T14:46:26.176Z,100990.12
2019-06-27T14:48:56.867Z,100993.84
2019-06-27T14:51:24.999Z,100989.90
2019-06-27T14:53:53.529Z,100980.22
2019-06-27T14:56:22.104Z,100989.17
2019-06-27T14:58:50.672Z,100994.92
2019-06-27T15:01:19.208Z,100984.73
2019-06-27T15:03:47.746Z,100993.62
2019-06-27T15:06:16.330Z,100988.27
2019-06-27T15:08:44.922Z,100986.16
2019-06-27T15:11:13.464Z,100988.61
2019-06-27T15:13:42.005Z,100984.17
2019-06-27T15:16:12.150Z,100988.69
2019-06-27T15:18:40.818Z,100995.06
2019-06-27T15:21:10.046Z,100983.89
2019-06-27T15:23:38.601Z,100986.97
2019-06-27T15:26:07.147Z,100979.34
2019-06-27T15:28:36.002Z,100982.39
2019-06-27T15:31:04.561Z,100982.46
2019-06-27T15:33:33.097Z,100988.45
2019-06-27T15:36:01.659Z,100981.55
2019-06-27T15:38:30.249Z,100988.30
2019-06-27T15:40:58.765Z,100984.06
2019-06-27T15:43:27.295Z,100990.98
2019-06-27T15:45:55.824Z,100985.31
2019-06-27T15:48:24.389Z,100983.52
2019-06-27T15:50:52.911Z,100980.85
2019-06-27T15:53:21.459Z,100978.18
2019-06-27T15:55:50.017Z,100979.26
2019-06-27T15:58:18.616Z,100983.56
2019-06-27T16:00:47.167Z,100975.48
2019-06-27T16:03:15.691Z,100980.14
2019-06-27T16:05:44.223Z,100969.30
2019-06-27T16:08:12.777Z,100971.45
2019-06-27T16:10:41.616Z,100970.84
2019-06-27T16:13:10.164Z,100981.12
2019-06-27T16:15:38.705Z,100968.91
2019-06-27T16:18:07.248Z,100970.13
2019-06-27T16:20:35.781Z,100968.22
2019-06-27T16:23:04.377Z,100963.47
2019-06-27T16:25:32.904Z,100969.70
2019-06-27T16:28:01.436Z,100965.11
2019-06-27T16:30:29.974Z,100958.98
2019-06-27T16:32:58.592Z,100960.61
2019-06-27T16:35:27.125Z,100965.55
2019-06-27T16:37:55.649Z,100969.94
2019-06-27T16:40:24.200Z,100961.30
2019-06-27T16:42:52.811Z,100968.80
2019-06-27T16:45:21.445Z,100962.25
2019-06-27T16:47:49.968Z,100966.83
2019-06-27T16:50:18.604Z,100955.31
2019-06-27T16:52:47.132Z,100957.80
2019-06-27T16:55:15.742Z,100962.98
2019-06-27T16:57:44.298Z,100957.44
2019-06-27T17:00:13.486Z,100956.42
2019-06-27T17:02:42.136Z,100955.08
2019-06-27T17:05:10.698Z,100955.66
2019-06-27T17:07:39.251Z,100954.26
2019-06-27T17:10:07.850Z,100954.14
2019-06-27T17:12:36.442Z,100963.15
2019-06-27T17:15:05.396Z,100958.55
2019-06-27T17:17:33.938Z,100963.19
2019-06-27T17:20:02.476Z,100962.71
2019-06-27T17:22:31.015Z,100962.48
2019-06-27T17:24:59.578Z,100965.78
2019-06-27T17:27:28.097Z,100969.02
2019-06-27T17:29:56.620Z,100959.39
2019-06-27T17:32:25.136Z,100960.55
2019-06-27T17:34:53.695Z,100962.50
2019-06-27T17:37:22.239Z,100958.26
2019-06-27T17:39:50.886Z,100963.80
2019-06-27T17:42:19.738Z,100964.49
2019-06-27T17:44:48.295Z,100961.31
2019-06-27T17:47:16.820Z,100954.59
2019-06-27T17:49:48.252Z,100954.69
2019-06-27T17:52:15.655Z,100957.30
2019-06-27T17:54:44.212Z,100951.46
2019-06-27T17:57:12.749Z,100956.14
2019-06-27T17:59:41.293Z,100947.92
2019-06-27T18:02:09.833Z,100953.27
2019-06-27T18:04:38.369Z,100960.80
2019-06-27T18:07:14.310Z,100954.47
2019-06-27T18:09:37.154Z,100950.05
2019-06-27T18:12:05.746Z,100958.63
2019-06-27T18:14:34.261Z,100951.72
2019-06-27T18:17:02.792Z,100954.20
2019-06-27T18:19:31.291Z,100953.11
2019-06-27T18:21:59.877Z,100950.33
2019-06-27T18:24:28.398Z,100945.23
2019-06-27T18:26:56.954Z,100953.53
2019-06-27T18:29:25.462Z,100953.44
2019-06-27T18:31:53.992Z,100950.85
2019-06-27T18:34:22.511Z,100948.28
2019-06-27T18:36:51.058Z,100952.44
2019-06-27T18:39:19.643Z,100949.94
2019-06-27T18:41:48.161Z,100954.84
2019-06-27T18:44:16.681Z,100945.81
2019-06-27T18:46:45.211Z,100943.70
2019-06-27T18:49:14.062Z,100949.23
2019-06-27T18:51:42.594Z,100941.56
2019-06-27T18:54:11.098Z,100935.40
2019-06-27T18:56:39.640Z,100941.55
2019-06-27T18:59:08.175Z,100945.02
2019-06-27T19:01:36.791Z,100941.52
2019-06-27T19:04:05.303Z,100942.66
2019-06-27T19:06:33.852Z,100945.86
2019-06-27T19:09:02.400Z,100947.88
2019-06-27T19:11:31.598Z,100948.48
2019-06-27T19:14:00.114Z,100947.70
2019-06-27T19:16:28.642Z,100942.86
2019-06-27T19:18:59.511Z,100951.43
2019-06-27T19:21:45.926Z,100948.27
2019-06-27T19:24:48.933Z,100950.25
2019-06-27T19:27:17.457Z,100951.24
2019-06-27T19:29:45.986Z,100953.16
2019-06-27T19:32:14.841Z,100956.62
2019-06-27T19:34:43.588Z,100957.28
2019-06-27T19:37:12.185Z,100954.12
2019-06-27T19:39:40.747Z,100965.02
2019-06-27T19:42:09.588Z,100964.08
2019-06-27T19:44:38.101Z,100961.00
2019-06-27T19:47:06.795Z,100969.94
2019-06-27T19:49:35.301Z,100976.83
2019-06-27T19:52:04.249Z,100972.72
2019-06-27T19:54:32.845Z,100976.26
2019-06-27T19:57:01.351Z,100980.17
2019-06-27T19:59:29.843Z,100974.84
2019-06-27T20:01:58.354Z,100979.66
2019-06-27T20:04:26.882Z,100978.67
2019-06-27T20:06:55.663Z,100976.47
2019-06-27T20:09:24.192Z,100977.92
2019-06-27T20:11:52.740Z,100976.25
2019-06-27T20:14:21.576Z,100985.24
2019-06-27T20:16:50.106Z,100988.06
2019-06-27T20:19:18.616Z,100984.86
2019-06-27T20:21:47.185Z,100988.98
2019-06-27T20:24:15.684Z,100997.45
2019-06-27T20:26:44.224Z,101003.47
2019-06-27T20:29:12.731Z,101004.48
2019-06-27T20:31:41.336Z,101005.45
2019-06-27T20:34:09.844Z,101006.87
2019-06-27T20:36:38.357Z,101008.73
2019-06-27T20:39:07.329Z,101010.56
2019-06-27T20:41:35.874Z,101011.23
2019-06-27T20:44:04.381Z,101025.11
2019-06-27T20:46:32.908Z,101023.33
2019-06-27T20:49:01.427Z,101044.75
2019-06-27T20:51:29.949Z,101039.79
2019-06-27T20:53:58.477Z,101037.22
2019-06-27T20:56:30.257Z,101049.22
2019-06-27T20:58:57.205Z,101056.27
2019-06-27T21:01:25.704Z,101064.24
2019-06-27T21:03:54.281Z,101069.43
2019-06-27T21:06:22.773Z,101069.43
2019-06-27T21:08:52.061Z,101067.91
2019-06-27T21:11:20.598Z,101067.13
2019-06-27T21:13:49.116Z,101069.82
2019-06-27T21:16:17.658Z,101071.52
2019-06-27T21:18:46.324Z,101064.83
2019-06-27T21:21:14.898Z,101074.58
2019-06-27T21:23:43.443Z,101065.10
2019-06-27T21:26:11.998Z,101066.09
2019-06-27T21:28:40.537Z,101073.41
2019-06-27T21:31:09.036Z,101071.40
2019-06-27T21:33:37.710Z,101072.94
2019-06-27T21:36:06.205Z,101077.34
2019-06-27T21:38:34.742Z,101083.28
2019-06-27T21:41:03.253Z,101087.58
2019-06-27T21:43:31.765Z,101085.70
2019-06-27T21:46:00.325Z,101087.86
2019-06-27T21:48:28.840Z,101083.59
2019-06-27T21:50:57.727Z,101092.77
2019-06-27T21:53:26.296Z,101086.95
2019-06-27T21:55:54.827Z,101088.47
2019-06-27T21:58:23.345Z,101084.06
2019-06-27T22:00:52.364Z,101087.63
2019-06-27T22:03:21.229Z,101093.67
2019-06-27T22:05:49.716Z,101084.63
2019-06-27T22:08:18.263Z,101092.39
2019-06-27T22:10:46.709Z,101092.31
2019-06-27T22:13:15.243Z,101096.59
2019-06-27T22:15:43.921Z,101092.06
2019-06-27T22:18:12.419Z,101086.74
2019-06-27T22:20:40.929Z,101085.08
2019-06-27T22:23:09.672Z,101084.77
2019-06-27T22:25:40.733Z,101085.66
2019-06-27T22:28:08.454Z,101086.19
2019-06-27T22:30:36.975Z,101086.11
2019-06-27T22:33:05.480Z,101082.73
2019-06-27T22:35:33.986Z,101083.80
2019-06-27T22:38:20.247Z,101084.33
2019-06-27T22:41:06.841Z,101082.23
2019-06-27T22:43:53.568Z,101083.42
2019-06-27T22:46:39.832Z,101075.35
2019-06-27T22:49:07.559Z,101074.08
2019-06-27T22:51:53.869Z,101081.97
2019-06-27T22:54:23.973Z,101080.61
2019-06-27T22:56:52.473Z,101078.84
2019-06-27T22:59:21.002Z,101080.36
2019-06-27T23:01:49.588Z,101083.34
2019-06-27T23:04:18.204Z,101087.20
2019-06-27T23:06:47.104Z,101079.91
2019-06-27T23:09:15.886Z,101078.02
2019-06-27T23:11:44.471Z,101082.11
2019-06-27T23:14:13.080Z,101084.54
2019-06-27T23:16:42.019Z,101076.81
2019-06-27T23:19:11.708Z,101079.41
2019-06-27T23:21:40.463Z,101075.11
2019-06-27T23:24:09.052Z,101072.14
2019-06-27T23:26:37.671Z,101072.02
2019-06-27T23:29:06.268Z,101071.67
2019-06-27T23:31:34.861Z,101068.84
2019-06-27T23:34:03.460Z,101074.03
2019-06-27T23:36:32.052Z,101073.41
2019-06-27T23:39:00.635Z,101075.70
2019-06-27T23:41:29.279Z,101072.14
2019-06-27T23:43:57.858Z,101072.94
2019-06-27T23:46:40.563Z,101071.58
2019-06-27T23:49:09.199Z,101071.58
2019-06-27T23:51:37.804Z,101065.50
2019-06-27T23:54:06.388Z,101065.59
2019-06-27T23:56:34.971Z,101062.16
2019-06-27T23:59:03.553Z,101061.34
